createdAt,value
2023-02-20T00:01:00.734Z,5.45
2023-02-20T00:03:27.457Z,5.43
2023-02-20T00:05:54.008Z,5.11
2023-02-20T00:08:20.599Z,5.18
2023-02-20T00:10:47.354Z,5.17
2023-02-20T00:13:14.098Z,5.13
2023-02-20T00:15:40.613Z,5.09
2023-02-20T00:18:07.192Z,5.25
2023-02-20T00:20:33.866Z,5.27
2023-02-20T00:23:00.415Z,5.27
2023-02-20T00:25:26.967Z,5.24
2023-02-20T00:27:53.556Z,5.04
2023-02-20T00:30:22.480Z,4.85
2023-02-20T00:32:52.691Z,4.90
2023-02-20T00:35:21.039Z,4.82
2023-02-20T00:37:48.137Z,4.80
2023-02-20T00:40:16.070Z,4.48
2023-02-20T00:42:43.070Z,4.49
2023-02-20T00:45:10.337Z,4.60
2023-02-20T00:47:37.000Z,4.53
2023-02-20T00:50:05.191Z,4.21
2023-02-20T00:52:31.732Z,4.08
2023-02-20T00:54:58.254Z,4.06
2023-02-20T00:57:24.856Z,4.12
2023-02-20T00:59:54.411Z,4.16
2023-02-20T01:02:24.755Z,4.25
2023-02-20T01:04:54.096Z,4.27
2023-02-20T01:07:22.935Z,4.17
2023-02-20T01:09:49.470Z,4.16
2023-02-20T01:12:16.324Z,4.10
2023-02-20T01:14:42.977Z,4.11
2023-02-20T01:17:09.687Z,4.02
2023-02-20T01:19:36.228Z,4.06
2023-02-20T01:22:06.342Z,4.18
2023-02-20T01:24:32.858Z,4.18
2023-02-20T01:26:59.381Z,4.25
2023-02-20T01:29:25.868Z,4.32
2023-02-20T01:31:57.074Z,4.41
2023-02-20T01:34:26.337Z,4.45
2023-02-20T01:36:56.272Z,4.39
2023-02-20T01:39:28.211Z,4.40
2023-02-20T01:42:00.168Z,4.36
2023-02-20T01:44:30.617Z,4.34
2023-02-20T01:46:58.620Z,4.23
2023-02-20T01:49:37.759Z,4.35
2023-02-20T01:52:14.208Z,4.45
2023-02-20T01:54:43.688Z,4.45
2023-02-20T01:57:17.057Z,4.48
2023-02-20T01:59:45.316Z,4.33
2023-02-20T02:02:11.987Z,4.44
2023-02-20T02:04:41.343Z,4.43
2023-02-20T02:07:08.113Z,4.43
2023-02-20T02:09:57.086Z,4.38
2023-02-20T02:12:25.808Z,4.37
2023-02-20T02:14:55.817Z,4.19
2023-02-20T02:17:50.990Z,4.35
2023-02-20T02:20:17.446Z,4.35
2023-02-20T02:23:02.013Z,4.33
2023-02-20T02:25:54.545Z,4.33
2023-02-20T02:28:42.582Z,4.26
2023-02-20T02:31:43.236Z,4.09
2023-02-20T02:34:21.257Z,4.08
2023-02-20T02:37:08.361Z,4.03
2023-02-20T02:39:40.908Z,3.98
2023-02-20T02:42:30.604Z,3.98
2023-02-20T02:45:22.859Z,4.01
2023-02-20T02:47:58.841Z,3.73
2023-02-20T02:50:39.731Z,3.79
2023-02-20T02:53:09.471Z,3.72
2023-02-20T02:55:36.517Z,3.71
2023-02-20T02:58:05.485Z,3.66
2023-02-20T03:00:42.861Z,3.60
2023-02-20T03:03:24.528Z,3.44
2023-02-20T03:05:55.269Z,3.39
2023-02-20T03:08:37.977Z,3.42
2023-02-20T03:11:08.818Z,3.47
2023-02-20T03:14:23.032Z,3.38
2023-02-20T03:16:55.192Z,3.31
2023-02-20T03:19:38.817Z,3.31
2023-02-20T03:22:12.891Z,3.25
2023-02-20T03:24:55.325Z,3.46
2023-02-20T03:27:30.209Z,3.36
2023-02-20T03:30:02.334Z,3.52
2023-02-20T03:32:51.248Z,3.63
2023-02-20T03:35:38.530Z,3.50
2023-02-20T03:38:28.303Z,3.47
2023-02-20T03:41:17.326Z,3.19
2023-02-20T03:43:45.880Z,3.16
2023-02-20T03:46:20.953Z,2.96
2023-02-20T03:49:21.277Z,2.81
2023-02-20T03:51:48.290Z,2.74
2023-02-20T03:54:14.990Z,2.93
2023-02-20T03:56:45.293Z,2.77
2023-02-20T03:59:15.247Z,2.69
2023-02-20T04:01:43.663Z,2.59
2023-02-20T04:04:17.342Z,2.64
2023-02-20T04:06:46.644Z,2.50
2023-02-20T04:09:19.193Z,2.47
2023-02-20T04:11:51.813Z,2.37
2023-02-20T04:14:22.891Z,2.35
2023-02-20T04:16:55.493Z,2.37
2023-02-20T04:19:22.231Z,2.28
2023-02-20T04:21:56.187Z,2.31
2023-02-20T04:24:37.591Z,2.43
2023-02-20T04:27:04.326Z,2.30
2023-02-20T04:29:33.557Z,2.27
2023-02-20T04:32:00.156Z,2.33
2023-02-20T04:34:26.678Z,2.46
2023-02-20T04:37:08.109Z,2.30
2023-02-20T04:39:34.598Z,2.24
2023-02-20T04:42:01.151Z,2.34
2023-02-20T04:44:36.832Z,2.49
2023-02-20T04:47:11.223Z,2.39
2023-02-20T04:49:37.722Z,2.34
2023-02-20T04:52:07.018Z,2.26
2023-02-20T04:54:37.829Z,2.38
2023-02-20T04:57:05.434Z,2.26
2023-02-20T04:59:31.994Z,2.22
2023-02-20T05:02:01.089Z,2.04
2023-02-20T05:04:28.455Z,2.03
2023-02-20T05:06:56.092Z,2.03
2023-02-20T05:09:23.337Z,2.06
2023-02-20T05:11:50.299Z,2.19
2023-02-20T05:14:16.868Z,2.30
2023-02-20T05:16:45.617Z,2.34
2023-02-20T05:19:13.516Z,2.53
2023-02-20T05:22:03.293Z,2.50
2023-02-20T05:24:30.635Z,2.63
2023-02-20T05:26:57.199Z,2.77
2023-02-20T05:29:23.705Z,3.09
2023-02-20T05:31:50.388Z,3.21
2023-02-20T05:34:17.230Z,3.26
2023-02-20T05:36:43.710Z,3.16
2023-02-20T05:39:10.200Z,3.18
2023-02-20T05:41:37.804Z,3.02
2023-02-20T05:44:08.632Z,2.94
2023-02-20T05:46:42.721Z,3.01
2023-02-20T05:49:11.880Z,2.97
2023-02-20T05:51:39.179Z,2.92
2023-02-20T05:54:08.652Z,2.99
2023-02-20T05:56:38.944Z,2.98
2023-02-20T05:59:08.391Z,2.88
2023-02-20T06:01:37.358Z,3.03
2023-02-20T06:04:07.191Z,3.11
2023-02-20T06:06:39.731Z,2.96
2023-02-20T06:09:09.042Z,2.94
2023-02-20T06:11:38.630Z,2.79
2023-02-20T06:14:08.876Z,2.87
2023-02-20T06:16:40.134Z,3.00
2023-02-20T06:19:09.620Z,3.00
2023-02-20T06:21:45.424Z,2.89
2023-02-20T06:24:12.052Z,2.90
2023-02-20T06:26:42.442Z,2.86
2023-02-20T06:29:09.903Z,2.71
2023-02-20T06:31:39.558Z,2.59
2023-02-20T06:34:10.200Z,2.73
2023-02-20T06:36:39.698Z,2.79
2023-02-20T06:39:13.990Z,2.75
2023-02-20T06:41:40.889Z,2.55
2023-02-20T06:44:10.551Z,2.64
2023-02-20T06:46:40.127Z,2.67
2023-02-20T06:49:07.858Z,2.76
2023-02-20T06:51:36.765Z,2.58
2023-02-20T06:54:06.326Z,2.66
2023-02-20T06:56:37.380Z,2.61
2023-02-20T06:59:07.462Z,2.65
2023-02-20T07:01:40.242Z,2.77
2023-02-20T07:04:17.362Z,2.70
2023-02-20T07:06:43.984Z,2.56
2023-02-20T07:09:13.300Z,2.62
2023-02-20T07:11:40.514Z,2.50
2023-02-20T07:14:09.762Z,2.47
2023-02-20T07:16:40.107Z,2.41
2023-02-20T07:19:10.413Z,2.35
2023-02-20T07:21:39.969Z,2.46
2023-02-20T07:24:09.409Z,2.51
2023-02-20T07:26:39.406Z,2.56
2023-02-20T07:29:08.975Z,2.83
2023-02-20T07:31:39.420Z,3.07
2023-02-20T07:34:08.747Z,3.27
2023-02-20T07:36:37.371Z,3.50
2023-02-20T07:39:07.416Z,3.83
2023-02-20T07:41:38.699Z,4.02
2023-02-20T07:44:08.679Z,4.40
2023-02-20T07:46:38.405Z,4.83
2023-02-20T07:49:09.094Z,5.41
2023-02-20T07:51:36.716Z,5.92
2023-02-20T07:54:03.285Z,6.53
2023-02-20T07:56:30.253Z,7.16
2023-02-20T07:58:57.993Z,7.69
2023-02-20T08:01:26.210Z,8.09
2023-02-20T08:03:53.175Z,8.40
2023-02-20T08:06:20.515Z,8.70
2023-02-20T08:08:48.716Z,8.98
2023-02-20T08:11:15.247Z,9.19
2023-02-20T08:13:43.385Z,9.41
2023-02-20T08:16:10.021Z,9.63
2023-02-20T08:18:39.545Z,9.88
2023-02-20T08:21:07.454Z,10.12
2023-02-20T08:23:33.985Z,10.32
2023-02-20T08:26:00.561Z,10.60
2023-02-20T08:28:27.257Z,10.97
2023-02-20T08:30:53.778Z,11.17
2023-02-20T08:33:20.341Z,11.29
2023-02-20T08:35:48.608Z,11.46
2023-02-20T08:38:35.632Z,11.61
2023-02-20T08:41:10.102Z,11.83
2023-02-20T08:43:40.787Z,12.08
2023-02-20T08:46:10.893Z,12.37
2023-02-20T08:48:41.742Z,12.25
2023-02-20T08:51:08.542Z,11.94
2023-02-20T08:53:37.534Z,11.88
2023-02-20T08:56:07.141Z,11.82
2023-02-20T08:58:33.658Z,11.40
2023-02-20T09:01:00.232Z,11.36
2023-02-20T09:03:27.309Z,11.04
2023-02-20T09:05:53.895Z,11.31
2023-02-20T09:08:20.532Z,11.49
2023-02-20T09:10:47.224Z,11.51
2023-02-20T09:13:14.124Z,11.51
2023-02-20T09:15:40.752Z,11.41
2023-02-20T09:18:13.063Z,11.52
2023-02-20T09:20:40.680Z,11.81
2023-02-20T09:23:07.907Z,11.60
2023-02-20T09:25:36.841Z,12.02
2023-02-20T09:28:03.660Z,12.44
2023-02-20T09:30:30.273Z,12.42
2023-02-20T09:32:56.808Z,12.70
2023-02-20T09:35:29.790Z,13.00
2023-02-20T09:37:56.631Z,12.95
2023-02-20T09:40:29.094Z,13.25
2023-02-20T09:43:15.873Z,13.34
2023-02-20T09:45:51.141Z,12.90
2023-02-20T09:48:51.066Z,12.84
2023-02-20T09:51:24.821Z,13.14
2023-02-20T09:54:02.693Z,12.94
2023-02-20T09:56:33.305Z,12.60
2023-02-20T09:59:33.924Z,12.88
2023-02-20T10:02:26.801Z,13.41
2023-02-20T10:05:01.713Z,13.66
2023-02-20T10:07:37.391Z,13.89
2023-02-20T10:10:19.132Z,13.81
2023-02-20T10:13:00.655Z,14.15
2023-02-20T10:16:00.619Z,14.26
2023-02-20T10:18:33.073Z,15.09
2023-02-20T10:21:11.581Z,15.82
2023-02-20T10:24:04.929Z,16.31
2023-02-20T10:26:44.631Z,16.15
2023-02-20T10:29:18.354Z,16.33
2023-02-20T10:31:52.473Z,16.73
2023-02-20T10:34:29.768Z,17.23
2023-02-20T10:37:04.131Z,17.39
2023-02-20T10:39:32.483Z,17.37
2023-02-20T10:42:08.875Z,17.11
2023-02-20T10:45:00.595Z,17.60
2023-02-20T10:47:50.823Z,18.18
2023-02-20T10:50:29.359Z,18.05
2023-02-20T10:53:08.212Z,18.13
2023-02-20T10:56:19.992Z,18.52
2023-02-20T10:59:07.226Z,19.17
2023-02-20T11:01:38.122Z,19.48
2023-02-20T11:04:15.809Z,19.64
2023-02-20T11:06:55.977Z,19.43
2023-02-20T11:09:23.427Z,19.90
2023-02-20T11:11:50.053Z,20.39
2023-02-20T11:14:41.177Z,20.81
2023-02-20T11:17:19.377Z,20.90
2023-02-20T11:19:53.501Z,20.98
2023-02-20T11:22:43.025Z,21.53
2023-02-20T11:25:21.477Z,21.64
2023-02-20T11:27:50.701Z,21.86
2023-02-20T11:30:31.065Z,22.15
2023-02-20T11:33:15.255Z,22.35
2023-02-20T11:35:47.143Z,22.69
2023-02-20T11:38:29.108Z,22.79
2023-02-20T11:41:01.612Z,22.54
2023-02-20T11:43:34.384Z,22.28
2023-02-20T11:46:13.097Z,22.11
2023-02-20T11:49:00.660Z,22.02
2023-02-20T11:51:42.096Z,22.08
2023-02-20T11:54:10.313Z,22.24
2023-02-20T11:56:52.686Z,22.40
2023-02-20T11:59:27.446Z,22.82
2023-02-20T12:02:00.789Z,23.02
2023-02-20T12:04:27.623Z,23.11
2023-02-20T12:06:54.321Z,23.25
2023-02-20T12:09:26.097Z,23.38
2023-02-20T12:11:56.504Z,23.51
2023-02-20T12:14:23.254Z,23.33
2023-02-20T12:16:49.865Z,23.13
2023-02-20T12:19:38.200Z,23.69
2023-02-20T12:22:42.471Z,24.10
2023-02-20T12:25:21.876Z,24.14
2023-02-20T12:28:00.330Z,24.31
2023-02-20T12:30:39.020Z,24.26
2023-02-20T12:33:15.927Z,24.29
2023-02-20T12:35:59.513Z,24.28
2023-02-20T12:38:49.571Z,24.56
2023-02-20T12:41:30.010Z,24.65
2023-02-20T12:44:13.636Z,24.77
2023-02-20T12:46:54.477Z,24.58
2023-02-20T12:49:58.017Z,24.70
2023-02-20T12:52:57.322Z,24.85
2023-02-20T12:55:53.170Z,24.92
2023-02-20T12:58:39.194Z,24.73
2023-02-20T13:01:14.918Z,24.68
2023-02-20T13:03:52.641Z,24.58
2023-02-20T13:06:32.958Z,24.69
2023-02-20T13:09:08.349Z,24.55
2023-02-20T13:11:41.877Z,23.96
2023-02-20T13:14:14.253Z,23.88
2023-02-20T13:16:44.472Z,23.81
2023-02-20T13:19:39.157Z,23.45
2023-02-20T13:22:07.640Z,23.47
2023-02-20T13:24:41.738Z,23.80
2023-02-20T13:27:28.985Z,23.86
2023-02-20T13:30:01.227Z,23.91
2023-02-20T13:32:33.118Z,24.14
2023-02-20T13:35:44.820Z,24.23
2023-02-20T13:38:13.460Z,24.13
2023-02-20T13:40:42.704Z,24.34
2023-02-20T13:43:15.374Z,24.22
2023-02-20T13:45:44.564Z,24.27
2023-02-20T13:48:20.999Z,24.05
2023-02-20T13:50:47.548Z,24.33
2023-02-20T13:53:14.118Z,24.58
2023-02-20T13:55:43.849Z,24.43
2023-02-20T13:58:15.588Z,24.33
2023-02-20T14:00:47.598Z,24.30
2023-02-20T14:03:34.573Z,23.87
2023-02-20T14:06:13.207Z,23.12
2023-02-20T14:08:42.233Z,23.05
2023-02-20T14:11:12.042Z,23.35
2023-02-20T14:13:44.178Z,23.60
2023-02-20T14:16:44.421Z,23.72
2023-02-20T14:19:32.942Z,24.01
2023-02-20T14:22:34.123Z,23.84
2023-02-20T14:25:25.101Z,23.91
2023-02-20T14:27:52.145Z,23.97
2023-02-20T14:30:23.145Z,23.82
2023-02-20T14:32:55.715Z,23.97
2023-02-20T14:35:46.719Z,24.10
2023-02-20T14:38:34.573Z,24.16
2023-02-20T14:41:13.893Z,23.89
2023-02-20T14:43:44.130Z,23.71
2023-02-20T14:46:29.713Z,23.60
2023-02-20T14:49:12.596Z,23.66
2023-02-20T14:51:43.106Z,23.70
2023-02-20T14:54:22.610Z,23.61
2023-02-20T14:56:50.680Z,23.71
2023-02-20T14:59:33.728Z,23.85
2023-02-20T15:02:03.618Z,23.81
2023-02-20T15:04:30.345Z,23.93
2023-02-20T15:07:06.677Z,23.64
2023-02-20T15:09:38.862Z,23.70
2023-02-20T15:12:09.208Z,23.45
2023-02-20T15:14:43.413Z,23.51
2023-02-20T15:17:12.941Z,23.38
2023-02-20T15:19:41.993Z,23.32
2023-02-20T15:22:30.452Z,23.32
2023-02-20T15:25:26.812Z,23.03
2023-02-20T15:28:18.387Z,22.81
2023-02-20T15:31:12.202Z,22.69
2023-02-20T15:33:57.080Z,22.57
2023-02-20T15:36:26.283Z,22.42
2023-02-20T15:38:55.718Z,22.27
2023-02-20T15:41:23.608Z,22.41
2023-02-20T15:43:51.658Z,22.19
2023-02-20T15:46:20.144Z,21.81
2023-02-20T15:48:47.180Z,21.64
2023-02-20T15:51:22.137Z,21.50
2023-02-20T15:53:51.265Z,21.39
2023-02-20T15:56:18.117Z,21.03
2023-02-20T15:58:46.920Z,20.61
2023-02-20T16:01:13.494Z,20.42
2023-02-20T16:03:51.752Z,20.19
2023-02-20T16:06:23.465Z,20.06
2023-02-20T16:08:51.263Z,19.74
2023-02-20T16:11:23.094Z,19.60
2023-02-20T16:13:55.181Z,19.33
2023-02-20T16:16:44.405Z,19.21
2023-02-20T16:19:18.235Z,19.11
2023-02-20T16:21:58.318Z,18.82
2023-02-20T16:24:25.942Z,18.53
2023-02-20T16:26:52.860Z,18.38
2023-02-20T16:29:22.942Z,18.36
2023-02-20T16:31:55.545Z,18.28
2023-02-20T16:34:24.803Z,18.09
2023-02-20T16:36:52.901Z,17.98
2023-02-20T16:39:26.227Z,17.79
2023-02-20T16:41:53.675Z,17.57
2023-02-20T16:44:42.758Z,17.29
2023-02-20T16:47:18.006Z,17.03
2023-02-20T16:49:44.836Z,16.75
2023-02-20T16:52:26.599Z,16.70
2023-02-20T16:54:55.437Z,16.54
2023-02-20T16:57:23.806Z,16.49
2023-02-20T16:59:55.499Z,16.40
2023-02-20T17:02:26.918Z,16.21
2023-02-20T17:04:53.734Z,16.02
2023-02-20T17:07:20.913Z,16.00
2023-02-20T17:09:47.970Z,15.76
2023-02-20T17:12:18.017Z,15.76
2023-02-20T17:14:45.672Z,15.47
2023-02-20T17:17:16.098Z,15.48
2023-02-20T17:19:44.007Z,15.24
2023-02-20T17:22:13.683Z,15.07
2023-02-20T17:24:43.203Z,14.90
2023-02-20T17:27:13.383Z,14.73
2023-02-20T17:29:46.652Z,14.68
2023-02-20T17:32:16.397Z,14.52
2023-02-20T17:34:46.110Z,14.42
2023-02-20T17:37:14.277Z,14.30
2023-02-20T17:39:43.902Z,14.26
2023-02-20T17:42:15.896Z,14.13
2023-02-20T17:44:43.801Z,13.99
2023-02-20T17:47:10.800Z,13.98
2023-02-20T17:49:40.165Z,13.92
2023-02-20T17:52:07.802Z,13.73
2023-02-20T17:54:34.381Z,13.70
2023-02-20T17:57:01.190Z,13.69
2023-02-20T17:59:28.488Z,13.58
2023-02-20T18:01:55.236Z,13.46
2023-02-20T18:04:22.129Z,13.38
2023-02-20T18:06:49.069Z,13.31
2023-02-20T18:09:17.978Z,13.26
2023-02-20T18:11:46.123Z,13.17
2023-02-20T18:14:13.677Z,13.20
2023-02-20T18:16:41.721Z,13.04
2023-02-20T18:19:14.532Z,13.06
2023-02-20T18:21:44.752Z,12.95
2023-02-20T18:24:13.373Z,12.92
2023-02-20T18:26:42.477Z,12.76
2023-02-20T18:29:09.002Z,12.69
2023-02-20T18:31:35.667Z,12.55
2023-02-20T18:34:02.897Z,12.55
2023-02-20T18:36:32.594Z,12.53
2023-02-20T18:39:00.188Z,12.40
2023-02-20T18:41:38.433Z,12.18
2023-02-20T18:44:05.654Z,12.19
2023-02-20T18:46:34.262Z,11.99
2023-02-20T18:49:02.564Z,11.90
2023-02-20T18:51:42.917Z,11.75
2023-02-20T18:54:16.820Z,11.72
2023-02-20T18:56:48.315Z,11.57
2023-02-20T18:59:16.153Z,11.53
2023-02-20T19:01:46.461Z,11.56
2023-02-20T19:04:16.012Z,11.30
2023-02-20T19:06:46.324Z,11.39
2023-02-20T19:09:18.561Z,11.36
2023-02-20T19:11:52.132Z,11.08
2023-02-20T19:14:19.915Z,10.95
2023-02-20T19:16:54.525Z,11.02
2023-02-20T19:19:25.169Z,10.81
2023-02-20T19:21:53.330Z,10.82
2023-02-20T19:24:21.197Z,10.52
2023-02-20T19:26:47.786Z,10.38
2023-02-20T19:29:14.557Z,9.93
2023-02-20T19:31:43.830Z,9.78
2023-02-20T19:34:13.868Z,9.82
2023-02-20T19:36:46.226Z,9.75
2023-02-20T19:39:15.629Z,9.86
2023-02-20T19:41:48.825Z,9.67
2023-02-20T19:44:16.902Z,10.06
2023-02-20T19:46:46.571Z,9.93
2023-02-20T19:49:17.079Z,9.69
2023-02-20T19:51:47.951Z,9.58
2023-02-20T19:54:18.867Z,9.43
2023-02-20T19:56:49.741Z,9.34
2023-02-20T19:59:16.371Z,9.28
2023-02-20T20:01:56.920Z,9.30
2023-02-20T20:04:25.928Z,9.18
2023-02-20T20:06:53.173Z,9.24
2023-02-20T20:09:35.054Z,9.13
2023-02-20T20:12:02.071Z,8.99
2023-02-20T20:14:28.612Z,8.87
2023-02-20T20:16:55.177Z,8.81
2023-02-20T20:19:21.797Z,8.73
2023-02-20T20:21:49.654Z,8.78
2023-02-20T20:24:16.408Z,8.83
2023-02-20T20:26:48.111Z,8.85
2023-02-20T20:29:17.504Z,8.87
2023-02-20T20:31:46.948Z,8.82
2023-02-20T20:34:16.277Z,8.79
2023-02-20T20:36:44.674Z,8.75
2023-02-20T20:39:11.226Z,8.83
2023-02-20T20:41:44.849Z,8.81
2023-02-20T20:44:14.583Z,8.73
2023-02-20T20:46:41.166Z,8.79
2023-02-20T20:49:14.495Z,8.81
2023-02-20T20:51:44.532Z,8.72
2023-02-20T20:54:15.920Z,8.64
2023-02-20T20:56:47.750Z,8.53
2023-02-20T20:59:15.132Z,8.49
2023-02-20T21:01:43.999Z,8.50
2023-02-20T21:04:14.166Z,8.31
2023-02-20T21:06:40.645Z,8.31
2023-02-20T21:09:07.146Z,8.28
2023-02-20T21:11:35.473Z,8.35
2023-02-20T21:14:02.485Z,8.19
2023-02-20T21:16:29.033Z,8.17
2023-02-20T21:18:55.590Z,7.95
2023-02-20T21:21:27.141Z,8.13
2023-02-20T21:23:53.746Z,8.06
2023-02-20T21:26:20.429Z,8.08
2023-02-20T21:28:46.975Z,7.85
2023-02-20T21:31:17.361Z,7.79
2023-02-20T21:33:48.393Z,7.87
2023-02-20T21:36:18.801Z,7.90
2023-02-20T21:38:45.793Z,7.89
2023-02-20T21:41:35.553Z,7.94
2023-02-20T21:44:20.648Z,7.95
2023-02-20T21:46:49.937Z,7.92
2023-02-20T21:49:19.929Z,7.95
2023-02-20T21:51:46.833Z,7.92
2023-02-20T21:54:15.889Z,7.96
2023-02-20T21:56:42.610Z,7.90
2023-02-20T21:59:09.057Z,7.90
2023-02-20T22:01:37.699Z,7.88
2023-02-20T22:04:05.904Z,7.81
2023-02-20T22:06:32.303Z,7.82
2023-02-20T22:09:17.633Z,7.76
2023-02-20T22:12:11.602Z,7.76
2023-02-20T22:14:59.738Z,7.71
2023-02-20T22:17:47.273Z,7.67
2023-02-20T22:20:32.332Z,7.57
2023-02-20T22:23:20.694Z,7.54
2023-02-20T22:26:08.969Z,7.53
2023-02-20T22:29:01.389Z,7.48
2023-02-20T22:31:47.106Z,7.46
2023-02-20T22:34:32.436Z,7.02
2023-02-20T22:37:18.848Z,7.12
2023-02-20T22:40:04.117Z,6.77
2023-02-20T22:42:49.332Z,6.71
2023-02-20T22:45:34.350Z,6.71
2023-02-20T22:48:19.520Z,6.64
2023-02-20T22:51:10.820Z,6.52
2023-02-20T22:53:55.946Z,6.44
2023-02-20T22:56:41.683Z,6.50
2023-02-20T22:59:27.044Z,6.55
2023-02-20T23:02:30.853Z,6.51
2023-02-20T23:05:16.016Z,6.71
2023-02-20T23:08:01.140Z,6.49
2023-02-20T23:10:46.301Z,6.39
2023-02-20T23:13:31.234Z,6.23
2023-02-20T23:16:16.492Z,6.21
2023-02-20T23:19:01.764Z,6.34
2023-02-20T23:21:46.752Z,6.22
2023-02-20T23:24:31.797Z,6.16
2023-02-20T23:27:16.897Z,6.27
2023-02-20T23:30:01.728Z,6.35
2023-02-20T23:32:46.659Z,6.26
2023-02-20T23:35:31.987Z,6.30
2023-02-20T23:38:16.909Z,6.33
2023-02-20T23:41:01.743Z,6.48
2023-02-20T23:43:48.121Z,6.41
2023-02-20T23:46:33.349Z,6.33
2023-02-20T23:49:18.181Z,6.42
2023-02-20T23:52:14.846Z,6.16
2023-02-20T23:55:01.436Z,6.21
2023-02-20T23:57:46.372Z,6.25
